sensor_id;sensor_type;location;lat;lon;timestamp;temperature;humidity
21092;DHT22;10704;42.678;23.288;2023-03-03T00:01:35;4.40;99.90
21092;DHT22;10704;42.678;23.288;2023-03-03T00:04:01;4.30;99.90
21092;DHT22;10704;42.678;23.288;2023-03-03T00:06:27;4.30;99.90
21092;DHT22;10704;42.678;23.288;2023-03-03T00:08:55;4.20;99.90
21092;DHT22;10704;42.678;23.288;2023-03-03T00:11:21;4.20;99.90
21092;DHT22;10704;42.678;23.288;2023-03-03T00:13:56;4.20;99.90
21092;DHT22;10704;42.678;23.288;2023-03-03T00:16:28;4.20;99.90
21092;DHT22;10704;42.678;23.288;2023-03-03T00:18:56;4.20;99.90
21092;DHT22;10704;42.678;23.288;2023-03-03T00:21:44;4.20;99.90
21092;DHT22;10704;42.678;23.288;2023-03-03T00:26:51;4.10;99.90
21092;DHT22;10704;42.678;23.288;2023-03-03T00:29:28;4.10;99.90
21092;DHT22;10704;42.678;23.288;2023-03-03T00:32:14;4.00;99.90
21092;DHT22;10704;42.678;23.288;2023-03-03T00:34:43;4.00;99.90
21092;DHT22;10704;42.678;23.288;2023-03-03T00:37:27;4.00;99.90
21092;DHT22;10704;42.678;23.288;2023-03-03T00:40:10;4.00;99.90
21092;DHT22;10704;42.678;23.288;2023-03-03T00:42:37;4.00;99.90
21092;DHT22;10704;42.678;23.288;2023-03-03T00:45:27;4.00;99.90
21092;DHT22;10704;42.678;23.288;2023-03-03T00:47:54;3.90;99.90
21092;DHT22;10704;42.678;23.288;2023-03-03T00:50:24;3.90;99.90
21092;DHT22;10704;42.678;23.288;2023-03-03T00:53:12;3.90;99.90
21092;DHT22;10704;42.678;23.288;2023-03-03T00:55:39;4.00;99.90
21092;DHT22;10704;42.678;23.288;2023-03-03T00:58:05;4.00;99.90
21092;DHT22;10704;42.678;23.288;2023-03-03T01:00:37;4.10;99.90
21092;DHT22;10704;42.678;23.288;2023-03-03T01:03:12;4.00;99.90
21092;DHT22;10704;42.678;23.288;2023-03-03T01:05:39;4.00;99.90
21092;DHT22;10704;42.678;23.288;2023-03-03T01:08:05;4.00;99.90
21092;DHT22;10704;42.678;23.288;2023-03-03T01:10:37;4.00;99.90
21092;DHT22;10704;42.678;23.288;2023-03-03T01:13:04;4.10;99.90
21092;DHT22;10704;42.678;23.288;2023-03-03T01:15:31;4.00;99.90
21092;DHT22;10704;42.678;23.288;2023-03-03T01:17:57;4.10;99.90
21092;DHT22;10704;42.678;23.288;2023-03-03T01:20:22;4.20;99.90
21092;DHT22;10704;42.678;23.288;2023-03-03T01:22:48;4.20;99.90
21092;DHT22;10704;42.678;23.288;2023-03-03T01:25:14;4.20;99.90
21092;DHT22;10704;42.678;23.288;2023-03-03T01:27:40;4.20;99.90
21092;DHT22;10704;42.678;23.288;2023-03-03T01:30:07;4.20;99.90
21092;DHT22;10704;42.678;23.288;2023-03-03T01:32:33;4.20;99.90
21092;DHT22;10704;42.678;23.288;2023-03-03T01:34:59;4.10;99.90
21092;DHT22;10704;42.678;23.288;2023-03-03T01:37:25;4.20;99.90
21092;DHT22;10704;42.678;23.288;2023-03-03T01:39:52;4.10;99.90
21092;DHT22;10704;42.678;23.288;2023-03-03T01:42:18;4.10;99.90
21092;DHT22;10704;42.678;23.288;2023-03-03T01:44:45;4.10;99.90
21092;DHT22;10704;42.678;23.288;2023-03-03T01:47:23;4.20;99.90
21092;DHT22;10704;42.678;23.288;2023-03-03T01:49:59;4.30;99.90
21092;DHT22;10704;42.678;23.288;2023-03-03T01:52:39;4.40;99.90
21092;DHT22;10704;42.678;23.288;2023-03-03T01:55:14;4.30;99.90
21092;DHT22;10704;42.678;23.288;2023-03-03T01:57:44;4.30;99.90
21092;DHT22;10704;42.678;23.288;2023-03-03T02:00:11;4.40;99.90
21092;DHT22;10704;42.678;23.288;2023-03-03T02:02:41;4.30;99.90
21092;DHT22;10704;42.678;23.288;2023-03-03T02:05:08;4.30;99.90
21092;DHT22;10704;42.678;23.288;2023-03-03T02:07:35;4.30;99.90
21092;DHT22;10704;42.678;23.288;2023-03-03T02:10:20;4.20;99.90
21092;DHT22;10704;42.678;23.288;2023-03-03T02:12:55;4.20;99.90
21092;DHT22;10704;42.678;23.288;2023-03-03T02:15:24;4.30;99.90
21092;DHT22;10704;42.678;23.288;2023-03-03T02:17:55;4.20;99.90
21092;DHT22;10704;42.678;23.288;2023-03-03T02:20:56;4.20;99.90
21092;DHT22;10704;42.678;23.288;2023-03-03T02:23:26;4.20;99.90
21092;DHT22;10704;42.678;23.288;2023-03-03T02:28:26;4.20;99.90
21092;DHT22;10704;42.678;23.288;2023-03-03T02:30:57;4.10;99.90
21092;DHT22;10704;42.678;23.288;2023-03-03T02:33:24;4.10;99.90
21092;DHT22;10704;42.678;23.288;2023-03-03T02:35:51;4.10;99.90
21092;DHT22;10704;42.678;23.288;2023-03-03T02:44:03;4.30;99.90
21092;DHT22;10704;42.678;23.288;2023-03-03T02:46:37;4.20;99.90
21092;DHT22;10704;42.678;23.288;2023-03-03T02:49:05;4.20;99.90
21092;DHT22;10704;42.678;23.288;2023-03-03T02:51:32;4.20;99.90
21092;DHT22;10704;42.678;23.288;2023-03-03T02:53:58;4.20;99.90
21092;DHT22;10704;42.678;23.288;2023-03-03T02:56:26;4.20;99.90
21092;DHT22;10704;42.678;23.288;2023-03-03T02:58:52;4.20;99.90
21092;DHT22;10704;42.678;23.288;2023-03-03T03:01:19;4.30;99.90
21092;DHT22;10704;42.678;23.288;2023-03-03T03:03:45;4.30;99.90
21092;DHT22;10704;42.678;23.288;2023-03-03T03:06:17;4.30;99.90
21092;DHT22;10704;42.678;23.288;2023-03-03T03:08:44;4.40;99.90
21092;DHT22;10704;42.678;23.288;2023-03-03T03:11:10;4.40;99.90
21092;DHT22;10704;42.678;23.288;2023-03-03T03:13:37;4.30;99.90
21092;DHT22;10704;42.678;23.288;2023-03-03T03:16:04;4.30;99.90
21092;DHT22;10704;42.678;23.288;2023-03-03T03:18:31;4.20;99.90
21092;DHT22;10704;42.678;23.288;2023-03-03T03:21:05;4.30;99.90
21092;DHT22;10704;42.678;23.288;2023-03-03T03:23:31;4.20;99.90
21092;DHT22;10704;42.678;23.288;2023-03-03T03:25:58;4.10;99.90
21092;DHT22;10704;42.678;23.288;2023-03-03T03:28:27;4.20;99.90
21092;DHT22;10704;42.678;23.288;2023-03-03T03:30:53;4.10;99.90
21092;DHT22;10704;42.678;23.288;2023-03-03T03:33:20;4.20;99.90
21092;DHT22;10704;42.678;23.288;2023-03-03T03:35:47;4.10;99.90
21092;DHT22;10704;42.678;23.288;2023-03-03T03:38:15;4.10;99.90
21092;DHT22;10704;42.678;23.288;2023-03-03T03:40:42;4.00;99.90
21092;DHT22;10704;42.678;23.288;2023-03-03T03:43:08;4.00;99.90
21092;DHT22;10704;42.678;23.288;2023-03-03T03:45:34;4.10;99.90
21092;DHT22;10704;42.678;23.288;2023-03-03T03:48:01;4.10;99.90
21092;DHT22;10704;42.678;23.288;2023-03-03T03:50:28;4.10;99.90
21092;DHT22;10704;42.678;23.288;2023-03-03T03:52:55;4.00;99.90
21092;DHT22;10704;42.678;23.288;2023-03-03T03:55:21;4.10;99.90
21092;DHT22;10704;42.678;23.288;2023-03-03T03:57:47;4.20;99.90
21092;DHT22;10704;42.678;23.288;2023-03-03T04:00:14;4.10;99.90
21092;DHT22;10704;42.678;23.288;2023-03-03T04:02:43;4.10;99.90
21092;DHT22;10704;42.678;23.288;2023-03-03T04:05:12;4.10;99.90
21092;DHT22;10704;42.678;23.288;2023-03-03T04:07:39;4.00;99.90
21092;DHT22;10704;42.678;23.288;2023-03-03T04:10:07;4.10;99.90
21092;DHT22;10704;42.678;23.288;2023-03-03T04:12:33;4.00;99.90
21092;DHT22;10704;42.678;23.288;2023-03-03T04:15:10;4.10;99.90
21092;DHT22;10704;42.678;23.288;2023-03-03T04:17:38;3.90;99.90
21092;DHT22;10704;42.678;23.288;2023-03-03T04:20:05;4.10;99.90
21092;DHT22;10704;42.678;23.288;2023-03-03T04:22:32;4.00;99.90
21092;DHT22;10704;42.678;23.288;2023-03-03T04:24:59;3.90;99.90
21092;DHT22;10704;42.678;23.288;2023-03-03T04:27:36;3.90;99.90
21092;DHT22;10704;42.678;23.288;2023-03-03T04:30:04;3.80;99.90
21092;DHT22;10704;42.678;23.288;2023-03-03T04:32:31;3.90;99.90
21092;DHT22;10704;42.678;23.288;2023-03-03T04:35:00;3.90;99.90
21092;DHT22;10704;42.678;23.288;2023-03-03T04:37:26;3.90;99.90
21092;DHT22;10704;42.678;23.288;2023-03-03T04:39:52;4.00;99.90
21092;DHT22;10704;42.678;23.288;2023-03-03T04:42:18;4.00;99.90
21092;DHT22;10704;42.678;23.288;2023-03-03T04:44:44;3.90;99.90
21092;DHT22;10704;42.678;23.288;2023-03-03T04:47:10;3.90;99.90
21092;DHT22;10704;42.678;23.288;2023-03-03T04:49:36;3.90;99.90
21092;DHT22;10704;42.678;23.288;2023-03-03T04:52:03;3.90;99.90
21092;DHT22;10704;42.678;23.288;2023-03-03T04:54:30;4.00;99.90
21092;DHT22;10704;42.678;23.288;2023-03-03T04:56:56;4.00;99.90
21092;DHT22;10704;42.678;23.288;2023-03-03T04:59:23;4.00;99.90
21092;DHT22;10704;42.678;23.288;2023-03-03T05:01:49;4.00;99.90
21092;DHT22;10704;42.678;23.288;2023-03-03T05:04:16;4.00;99.90
21092;DHT22;10704;42.678;23.288;2023-03-03T05:06:42;4.00;99.90
21092;DHT22;10704;42.678;23.288;2023-03-03T05:09:08;3.90;99.90
21092;DHT22;10704;42.678;23.288;2023-03-03T05:11:34;3.90;99.90
21092;DHT22;10704;42.678;23.288;2023-03-03T05:14:00;4.00;99.90
21092;DHT22;10704;42.678;23.288;2023-03-03T05:16:28;4.00;99.90
21092;DHT22;10704;42.678;23.288;2023-03-03T05:18:54;4.00;99.90
21092;DHT22;10704;42.678;23.288;2023-03-03T05:21:20;4.00;99.90
21092;DHT22;10704;42.678;23.288;2023-03-03T05:23:46;4.00;99.90
21092;DHT22;10704;42.678;23.288;2023-03-03T05:26:12;4.10;99.90
21092;DHT22;10704;42.678;23.288;2023-03-03T05:28:37;4.10;99.90
21092;DHT22;10704;42.678;23.288;2023-03-03T05:31:04;4.10;99.90
21092;DHT22;10704;42.678;23.288;2023-03-03T05:33:29;4.20;99.90
21092;DHT22;10704;42.678;23.288;2023-03-03T05:35:56;4.10;99.90
21092;DHT22;10704;42.678;23.288;2023-03-03T05:38:23;4.20;99.90
21092;DHT22;10704;42.678;23.288;2023-03-03T05:40:49;4.20;99.90
21092;DHT22;10704;42.678;23.288;2023-03-03T05:43:15;4.20;99.90
21092;DHT22;10704;42.678;23.288;2023-03-03T05:45:41;4.20;99.90
21092;DHT22;10704;42.678;23.288;2023-03-03T05:48:07;4.20;99.90
21092;DHT22;10704;42.678;23.288;2023-03-03T05:50:36;4.30;99.90
21092;DHT22;10704;42.678;23.288;2023-03-03T05:53:03;4.30;99.90
21092;DHT22;10704;42.678;23.288;2023-03-03T05:55:29;4.30;99.90
21092;DHT22;10704;42.678;23.288;2023-03-03T05:57:54;4.30;99.90
21092;DHT22;10704;42.678;23.288;2023-03-03T06:00:21;4.30;99.90
21092;DHT22;10704;42.678;23.288;2023-03-03T06:02:47;4.30;99.90
21092;DHT22;10704;42.678;23.288;2023-03-03T06:05:13;4.30;99.90
21092;DHT22;10704;42.678;23.288;2023-03-03T06:07:39;4.30;99.90
21092;DHT22;10704;42.678;23.288;2023-03-03T06:10:07;4.30;99.90
21092;DHT22;10704;42.678;23.288;2023-03-03T06:12:35;4.40;99.90
21092;DHT22;10704;42.678;23.288;2023-03-03T06:15:02;4.50;99.90
21092;DHT22;10704;42.678;23.288;2023-03-03T06:17:27;4.60;99.90
21092;DHT22;10704;42.678;23.288;2023-03-03T06:19:53;4.60;99.90
21092;DHT22;10704;42.678;23.288;2023-03-03T06:22:19;4.40;99.90
21092;DHT22;10704;42.678;23.288;2023-03-03T06:24:45;4.40;99.90
21092;DHT22;10704;42.678;23.288;2023-03-03T06:27:11;4.40;99.90
21092;DHT22;10704;42.678;23.288;2023-03-03T06:29:37;4.30;99.90
21092;DHT22;10704;42.678;23.288;2023-03-03T06:32:03;4.40;99.90
21092;DHT22;10704;42.678;23.288;2023-03-03T06:34:29;4.40;99.90
21092;DHT22;10704;42.678;23.288;2023-03-03T06:36:55;4.40;99.90
21092;DHT22;10704;42.678;23.288;2023-03-03T06:39:21;4.30;99.90
21092;DHT22;10704;42.678;23.288;2023-03-03T06:41:48;4.40;99.90
21092;DHT22;10704;42.678;23.288;2023-03-03T06:44:14;4.50;99.90
21092;DHT22;10704;42.678;23.288;2023-03-03T06:46:41;4.50;99.90
21092;DHT22;10704;42.678;23.288;2023-03-03T06:49:07;4.50;99.90
21092;DHT22;10704;42.678;23.288;2023-03-03T06:51:35;4.60;99.90
21092;DHT22;10704;42.678;23.288;2023-03-03T06:54:12;4.60;99.90
21092;DHT22;10704;42.678;23.288;2023-03-03T06:56:39;4.60;99.90
21092;DHT22;10704;42.678;23.288;2023-03-03T06:59:15;4.60;99.90
21092;DHT22;10704;42.678;23.288;2023-03-03T07:01:42;4.70;99.90
21092;DHT22;10704;42.678;23.288;2023-03-03T07:09:43;4.80;99.90
21092;DHT22;10704;42.678;23.288;2023-03-03T07:12:18;4.80;99.90
21092;DHT22;10704;42.678;23.288;2023-03-03T07:14:50;4.90;99.90
21092;DHT22;10704;42.678;23.288;2023-03-03T07:17:23;5.00;99.90
21092;DHT22;10704;42.678;23.288;2023-03-03T07:19:49;4.90;99.90
21092;DHT22;10704;42.678;23.288;2023-03-03T07:22:20;5.00;99.90
21092;DHT22;10704;42.678;23.288;2023-03-03T07:24:51;4.80;99.90
21092;DHT22;10704;42.678;23.288;2023-03-03T07:29:49;5.00;99.90
21092;DHT22;10704;42.678;23.288;2023-03-03T07:32:44;5.20;99.90
21092;DHT22;10704;42.678;23.288;2023-03-03T07:35:38;5.20;99.90
21092;DHT22;10704;42.678;23.288;2023-03-03T07:41:19;5.10;99.90
21092;DHT22;10704;42.678;23.288;2023-03-03T07:44:05;4.90;99.90
21092;DHT22;10704;42.678;23.288;2023-03-03T07:46:43;5.10;99.90
21092;DHT22;10704;42.678;23.288;2023-03-03T07:51:56;5.10;99.90
21092;DHT22;10704;42.678;23.288;2023-03-03T07:54:39;5.10;99.90
21092;DHT22;10704;42.678;23.288;2023-03-03T07:57:14;5.20;99.90
21092;DHT22;10704;42.678;23.288;2023-03-03T07:59:54;5.30;99.90
21092;DHT22;10704;42.678;23.288;2023-03-03T08:02:44;5.20;99.90
21092;DHT22;10704;42.678;23.288;2023-03-03T08:05:41;5.10;99.90
21092;DHT22;10704;42.678;23.288;2023-03-03T08:10:58;5.40;99.90
21092;DHT22;10704;42.678;23.288;2023-03-03T08:13:28;5.50;99.90
21092;DHT22;10704;42.678;23.288;2023-03-03T08:16:04;5.50;99.90
21092;DHT22;10704;42.678;23.288;2023-03-03T08:18:48;5.50;99.90
21092;DHT22;10704;42.678;23.288;2023-03-03T08:21:19;5.50;99.90
21092;DHT22;10704;42.678;23.288;2023-03-03T08:23:45;5.60;99.90
21092;DHT22;10704;42.678;23.288;2023-03-03T08:26:13;5.70;99.90
21092;DHT22;10704;42.678;23.288;2023-03-03T08:28:41;5.80;99.90
21092;DHT22;10704;42.678;23.288;2023-03-03T08:31:08;5.80;99.90
21092;DHT22;10704;42.678;23.288;2023-03-03T08:36:42;5.70;99.90
21092;DHT22;10704;42.678;23.288;2023-03-03T08:39:15;5.60;99.90
21092;DHT22;10704;42.678;23.288;2023-03-03T08:41:45;5.80;99.90
21092;DHT22;10704;42.678;23.288;2023-03-03T08:44:12;5.80;99.90
21092;DHT22;10704;42.678;23.288;2023-03-03T08:46:38;5.90;99.90
21092;DHT22;10704;42.678;23.288;2023-03-03T08:49:04;5.80;99.90
21092;DHT22;10704;42.678;23.288;2023-03-03T08:51:29;5.90;99.90
21092;DHT22;10704;42.678;23.288;2023-03-03T08:53:55;5.90;99.90
21092;DHT22;10704;42.678;23.288;2023-03-03T08:56:21;5.70;99.90
21092;DHT22;10704;42.678;23.288;2023-03-03T08:58:54;5.80;99.90
21092;DHT22;10704;42.678;23.288;2023-03-03T09:01:20;5.80;99.90
21092;DHT22;10704;42.678;23.288;2023-03-03T09:03:47;5.90;99.90
21092;DHT22;10704;42.678;23.288;2023-03-03T09:06:14;5.90;99.90
21092;DHT22;10704;42.678;23.288;2023-03-03T09:08:51;5.90;99.90
21092;DHT22;10704;42.678;23.288;2023-03-03T09:11:25;6.00;99.90
21092;DHT22;10704;42.678;23.288;2023-03-03T09:14:15;5.90;99.90
21092;DHT22;10704;42.678;23.288;2023-03-03T09:19:36;5.90;99.90
21092;DHT22;10704;42.678;23.288;2023-03-03T09:22:22;6.00;99.90
21092;DHT22;10704;42.678;23.288;2023-03-03T09:24:52;6.10;99.90
21092;DHT22;10704;42.678;23.288;2023-03-03T09:27:28;6.30;99.90
21092;DHT22;10704;42.678;23.288;2023-03-03T09:33:15;6.50;99.90
21092;DHT22;10704;42.678;23.288;2023-03-03T09:35:49;6.60;99.90
21092;DHT22;10704;42.678;23.288;2023-03-03T09:38:39;6.60;99.90
21092;DHT22;10704;42.678;23.288;2023-03-03T09:55:47;6.50;99.90
21092;DHT22;10704;42.678;23.288;2023-03-03T10:01:27;6.60;99.90
21092;DHT22;10704;42.678;23.288;2023-03-03T10:15:17;6.60;99.90
21092;DHT22;10704;42.678;23.288;2023-03-03T10:18:17;6.60;99.90
21092;DHT22;10704;42.678;23.288;2023-03-03T10:29:15;7.00;99.90
21092;DHT22;10704;42.678;23.288;2023-03-03T10:37:21;6.60;99.90
21092;DHT22;10704;42.678;23.288;2023-03-03T10:43:02;6.60;99.90
21092;DHT22;10704;42.678;23.288;2023-03-03T10:48:32;6.60;99.90
21092;DHT22;10704;42.678;23.288;2023-03-03T10:51:38;6.50;99.90
21092;DHT22;10704;42.678;23.288;2023-03-03T11:10:50;6.70;99.90
21092;DHT22;10704;42.678;23.288;2023-03-03T11:13:30;6.70;99.90
21092;DHT22;10704;42.678;23.288;2023-03-03T11:16:20;6.80;99.90
21092;DHT22;10704;42.678;23.288;2023-03-03T11:19:04;6.80;99.90
21092;DHT22;10704;42.678;23.288;2023-03-03T11:22:37;6.70;99.90
21092;DHT22;10704;42.678;23.288;2023-03-03T11:27:21;6.70;99.90
21092;DHT22;10704;42.678;23.288;2023-03-03T11:38:38;6.50;99.90
21092;DHT22;10704;42.678;23.288;2023-03-03T11:41:16;6.60;99.90
21092;DHT22;10704;42.678;23.288;2023-03-03T11:43:48;6.50;99.90
21092;DHT22;10704;42.678;23.288;2023-03-03T11:48:58;6.50;99.90
21092;DHT22;10704;42.678;23.288;2023-03-03T11:57:13;6.50;99.90
21092;DHT22;10704;42.678;23.288;2023-03-03T11:59:47;6.50;99.90
21092;DHT22;10704;42.678;23.288;2023-03-03T12:02:45;6.40;99.90
21092;DHT22;10704;42.678;23.288;2023-03-03T12:16:37;6.50;99.90
21092;DHT22;10704;42.678;23.288;2023-03-03T12:42:05;6.20;99.90
21092;DHT22;10704;42.678;23.288;2023-03-03T12:44:45;6.10;99.90
21092;DHT22;10704;42.678;23.288;2023-03-03T12:47:28;6.00;99.90
21092;DHT22;10704;42.678;23.288;2023-03-03T12:50:37;6.00;99.90
21092;DHT22;10704;42.678;23.288;2023-03-03T12:56:03;6.00;99.90
21092;DHT22;10704;42.678;23.288;2023-03-03T12:58:42;6.00;99.90
21092;DHT22;10704;42.678;23.288;2023-03-03T13:04:04;5.90;99.90
21092;DHT22;10704;42.678;23.288;2023-03-03T13:06:54;6.00;99.90
21092;DHT22;10704;42.678;23.288;2023-03-03T13:12:37;6.10;99.90
21092;DHT22;10704;42.678;23.288;2023-03-03T13:15:20;6.20;99.90
21092;DHT22;10704;42.678;23.288;2023-03-03T13:21:13;6.30;99.90
21092;DHT22;10704;42.678;23.288;2023-03-03T13:31:47;7.00;99.90
21092;DHT22;10704;42.678;23.288;2023-03-03T13:39:32;7.00;99.90
21092;DHT22;10704;42.678;23.288;2023-03-03T13:42:03;7.00;99.90
21092;DHT22;10704;42.678;23.288;2023-03-03T13:44:37;6.90;99.90
21092;DHT22;10704;42.678;23.288;2023-03-03T13:52:30;6.80;99.90
21092;DHT22;10704;42.678;23.288;2023-03-03T13:58:09;6.80;99.90
21092;DHT22;10704;42.678;23.288;2023-03-03T14:07:02;6.70;99.90
21092;DHT22;10704;42.678;23.288;2023-03-03T14:20:51;6.60;99.90
21092;DHT22;10704;42.678;23.288;2023-03-03T14:25:57;6.80;99.90
21092;DHT22;10704;42.678;23.288;2023-03-03T14:28:26;6.90;99.90
21092;DHT22;10704;42.678;23.288;2023-03-03T14:30:55;6.90;99.90
21092;DHT22;10704;42.678;23.288;2023-03-03T14:33:27;7.00;99.90
21092;DHT22;10704;42.678;23.288;2023-03-03T14:38:36;7.00;99.90
21092;DHT22;10704;42.678;23.288;2023-03-03T14:44:20;7.00;99.90
21092;DHT22;10704;42.678;23.288;2023-03-03T14:47:00;7.00;99.90
21092;DHT22;10704;42.678;23.288;2023-03-03T14:49:33;6.90;99.90
21092;DHT22;10704;42.678;23.288;2023-03-03T14:54:53;7.00;99.90
21092;DHT22;10704;42.678;23.288;2023-03-03T15:02:43;6.70;99.90
21092;DHT22;10704;42.678;23.288;2023-03-03T15:05:29;6.80;99.90
21092;DHT22;10704;42.678;23.288;2023-03-03T15:16:02;6.70;99.90
21092;DHT22;10704;42.678;23.288;2023-03-03T15:18:30;6.80;99.90
21092;DHT22;10704;42.678;23.288;2023-03-03T15:21:08;6.80;99.90
21092;DHT22;10704;42.678;23.288;2023-03-03T15:23:54;6.70;99.90
21092;DHT22;10704;42.678;23.288;2023-03-03T15:41:32;6.70;99.90
21092;DHT22;10704;42.678;23.288;2023-03-03T15:52:30;6.60;99.90
21092;DHT22;10704;42.678;23.288;2023-03-03T15:55:09;6.40;99.90
21092;DHT22;10704;42.678;23.288;2023-03-03T15:57:45;6.40;99.90
21092;DHT22;10704;42.678;23.288;2023-03-03T16:03:10;6.40;99.90
21092;DHT22;10704;42.678;23.288;2023-03-03T16:05:51;6.30;99.90
21092;DHT22;10704;42.678;23.288;2023-03-03T16:11:20;6.30;99.90
21092;DHT22;10704;42.678;23.288;2023-03-03T16:24:37;6.20;99.90
21092;DHT22;10704;42.678;23.288;2023-03-03T16:32:47;6.30;99.90
21092;DHT22;10704;42.678;23.288;2023-03-03T16:35:42;6.30;99.90
21092;DHT22;10704;42.678;23.288;2023-03-03T16:38:13;6.20;99.90
21092;DHT22;10704;42.678;23.288;2023-03-03T16:45:46;6.20;99.90
21092;DHT22;10704;42.678;23.288;2023-03-03T16:56:38;6.00;99.90
21092;DHT22;10704;42.678;23.288;2023-03-03T17:16:07;5.90;99.90
21092;DHT22;10704;42.678;23.288;2023-03-03T17:23:59;6.00;99.90
21092;DHT22;10704;42.678;23.288;2023-03-03T17:26:41;6.10;99.90
21092;DHT22;10704;42.678;23.288;2023-03-03T17:34:51;6.00;99.90
21092;DHT22;10704;42.678;23.288;2023-03-03T17:37:38;6.00;99.90
21092;DHT22;10704;42.678;23.288;2023-03-03T17:40:52;6.00;99.90
21092;DHT22;10704;42.678;23.288;2023-03-03T17:43:42;5.90;99.90
21092;DHT22;10704;42.678;23.288;2023-03-03T17:47:03;6.00;99.90
21092;DHT22;10704;42.678;23.288;2023-03-03T17:49:35;5.90;99.90
21092;DHT22;10704;42.678;23.288;2023-03-03T17:52:41;5.90;99.90
21092;DHT22;10704;42.678;23.288;2023-03-03T17:55:23;5.90;99.90
21092;DHT22;10704;42.678;23.288;2023-03-03T17:58:07;6.00;99.90
21092;DHT22;10704;42.678;23.288;2023-03-03T18:00:48;6.00;99.90
21092;DHT22;10704;42.678;23.288;2023-03-03T18:03:47;6.00;99.90
21092;DHT22;10704;42.678;23.288;2023-03-03T18:12:14;6.00;99.90
21092;DHT22;10704;42.678;23.288;2023-03-03T18:14:49;5.90;99.90
21092;DHT22;10704;42.678;23.288;2023-03-03T18:22:43;5.90;99.90
21092;DHT22;10704;42.678;23.288;2023-03-03T18:25:16;5.80;99.90
21092;DHT22;10704;42.678;23.288;2023-03-03T18:27:44;5.80;99.90
21092;DHT22;10704;42.678;23.288;2023-03-03T18:30:21;5.80;99.90
21092;DHT22;10704;42.678;23.288;2023-03-03T18:35:34;5.80;99.90
21092;DHT22;10704;42.678;23.288;2023-03-03T18:38:27;5.80;99.90
21092;DHT22;10704;42.678;23.288;2023-03-03T18:52:12;5.90;99.90
21092;DHT22;10704;42.678;23.288;2023-03-03T18:54:38;5.90;99.90
21092;DHT22;10704;42.678;23.288;2023-03-03T18:57:14;5.90;99.90
21092;DHT22;10704;42.678;23.288;2023-03-03T18:59:52;5.90;99.90
21092;DHT22;10704;42.678;23.288;2023-03-03T19:02:34;5.90;99.90
21092;DHT22;10704;42.678;23.288;2023-03-03T19:10:40;5.80;99.90
21092;DHT22;10704;42.678;23.288;2023-03-03T19:18:33;5.90;99.90
21092;DHT22;10704;42.678;23.288;2023-03-03T19:21:06;5.80;99.90
21092;DHT22;10704;42.678;23.288;2023-03-03T19:24:00;5.90;99.90
21092;DHT22;10704;42.678;23.288;2023-03-03T19:29:08;5.80;99.90
21092;DHT22;10704;42.678;23.288;2023-03-03T19:40:11;5.90;99.90
21092;DHT22;10704;42.678;23.288;2023-03-03T19:51:06;5.90;99.90
21092;DHT22;10704;42.678;23.288;2023-03-03T19:56:57;5.90;99.90
21092;DHT22;10704;42.678;23.288;2023-03-03T20:13:15;5.90;99.90
21092;DHT22;10704;42.678;23.288;2023-03-03T20:15:55;5.80;99.90
21092;DHT22;10704;42.678;23.288;2023-03-03T20:21:24;5.90;99.90
21092;DHT22;10704;42.678;23.288;2023-03-03T20:26:41;5.80;99.90
21092;DHT22;10704;42.678;23.288;2023-03-03T20:29:39;5.80;99.90
21092;DHT22;10704;42.678;23.288;2023-03-03T20:32:23;5.80;99.90
21092;DHT22;10704;42.678;23.288;2023-03-03T20:40:37;5.80;99.90
21092;DHT22;10704;42.678;23.288;2023-03-03T20:43:37;5.90;99.90
21092;DHT22;10704;42.678;23.288;2023-03-03T20:46:32;5.90;99.90
21092;DHT22;10704;42.678;23.288;2023-03-03T20:52:12;5.80;99.90
21092;DHT22;10704;42.678;23.288;2023-03-03T21:06:07;5.80;99.90
21092;DHT22;10704;42.678;23.288;2023-03-03T21:08:55;5.80;99.90
21092;DHT22;10704;42.678;23.288;2023-03-03T21:11:40;5.80;99.90
21092;DHT22;10704;42.678;23.288;2023-03-03T21:14:23;5.70;99.90
21092;DHT22;10704;42.678;23.288;2023-03-03T21:16:52;5.80;99.90
21092;DHT22;10704;42.678;23.288;2023-03-03T21:21:51;5.80;99.90
21092;DHT22;10704;42.678;23.288;2023-03-03T21:24:17;5.70;99.90
21092;DHT22;10704;42.678;23.288;2023-03-03T21:26:52;5.70;99.90
21092;DHT22;10704;42.678;23.288;2023-03-03T21:29:32;5.70;99.90
21092;DHT22;10704;42.678;23.288;2023-03-03T21:32:00;5.70;99.90
21092;DHT22;10704;42.678;23.288;2023-03-03T21:34:38;5.60;99.90
21092;DHT22;10704;42.678;23.288;2023-03-03T21:37:07;5.60;99.90
21092;DHT22;10704;42.678;23.288;2023-03-03T21:39:38;5.50;99.90
21092;DHT22;10704;42.678;23.288;2023-03-03T21:42:07;5.50;99.90
21092;DHT22;10704;42.678;23.288;2023-03-03T21:47:10;5.50;99.90
21092;DHT22;10704;42.678;23.288;2023-03-03T21:49:41;5.50;99.90
21092;DHT22;10704;42.678;23.288;2023-03-03T21:52:07;5.50;99.90
21092;DHT22;10704;42.678;23.288;2023-03-03T21:54:33;5.50;99.90
21092;DHT22;10704;42.678;23.288;2023-03-03T21:56:59;5.40;99.90
21092;DHT22;10704;42.678;23.288;2023-03-03T21:59:25;5.40;99.90
21092;DHT22;10704;42.678;23.288;2023-03-03T22:01:51;5.30;99.90
21092;DHT22;10704;42.678;23.288;2023-03-03T22:04:16;5.20;99.90
21092;DHT22;10704;42.678;23.288;2023-03-03T22:06:43;5.20;99.90
21092;DHT22;10704;42.678;23.288;2023-03-03T22:09:08;5.10;99.90
21092;DHT22;10704;42.678;23.288;2023-03-03T22:11:35;5.10;99.90
21092;DHT22;10704;42.678;23.288;2023-03-03T22:14:01;5.00;99.90
21092;DHT22;10704;42.678;23.288;2023-03-03T22:16:27;5.00;99.90
21092;DHT22;10704;42.678;23.288;2023-03-03T22:18:53;5.00;99.90
21092;DHT22;10704;42.678;23.288;2023-03-03T22:21:18;5.10;99.90
21092;DHT22;10704;42.678;23.288;2023-03-03T22:23:44;5.10;99.90
21092;DHT22;10704;42.678;23.288;2023-03-03T22:26:10;5.10;99.90
21092;DHT22;10704;42.678;23.288;2023-03-03T22:28:36;5.20;99.90
21092;DHT22;10704;42.678;23.288;2023-03-03T22:31:02;5.20;99.90
21092;DHT22;10704;42.678;23.288;2023-03-03T22:33:28;5.20;99.90
21092;DHT22;10704;42.678;23.288;2023-03-03T22:35:53;5.30;99.90
21092;DHT22;10704;42.678;23.288;2023-03-03T22:38:19;5.30;99.90
21092;DHT22;10704;42.678;23.288;2023-03-03T22:40:45;5.30;99.90
21092;DHT22;10704;42.678;23.288;2023-03-03T22:43:11;5.20;99.90
21092;DHT22;10704;42.678;23.288;2023-03-03T22:45:39;5.30;99.90
21092;DHT22;10704;42.678;23.288;2023-03-03T22:48:05;5.30;99.90
21092;DHT22;10704;42.678;23.288;2023-03-03T22:50:31;5.30;99.90
21092;DHT22;10704;42.678;23.288;2023-03-03T22:52:57;5.20;99.90
21092;DHT22;10704;42.678;23.288;2023-03-03T22:55:23;5.30;99.90
21092;DHT22;10704;42.678;23.288;2023-03-03T22:57:49;5.30;99.90
21092;DHT22;10704;42.678;23.288;2023-03-03T23:00:15;5.20;99.90
21092;DHT22;10704;42.678;23.288;2023-03-03T23:02:41;5.30;99.90
21092;DHT22;10704;42.678;23.288;2023-03-03T23:05:08;5.40;99.90